createdAt,value
2023-05-16T00:02:05.653Z,96987.59
2023-05-16T00:04:33.473Z,96986.61
2023-05-16T00:07:01.135Z,96990.39
2023-05-16T00:09:28.667Z,96987.38
2023-05-16T00:11:56.452Z,96993.28
2023-05-16T00:14:25.762Z,96993.42
2023-05-16T00:16:54.959Z,96993.92
2023-05-16T00:19:23.238Z,97000.26
2023-05-16T00:21:51.061Z,97003.88
2023-05-16T00:24:18.623Z,97002.45
2023-05-16T00:26:46.587Z,97005.52
2023-05-16T00:29:15.655Z,96999.46
2023-05-16T00:31:43.316Z,97004.78
2023-05-16T00:34:11.877Z,97002.78
2023-05-16T00:36:39.559Z,97005.02
2023-05-16T00:39:10.664Z,97010.34
2023-05-16T00:41:38.696Z,97007.36
2023-05-16T00:44:06.416Z,97012.88
2023-05-16T00:46:34.369Z,97018.08
2023-05-16T00:49:02.953Z,97016.08
2023-05-16T00:51:30.911Z,97020.49
2023-05-16T00:53:59.613Z,97022.41
2023-05-16T00:56:27.334Z,97024.67
2023-05-16T00:58:55.145Z,97026.92
2023-05-16T01:01:25.393Z,97028.64
2023-05-16T01:03:54.016Z,97032.48
2023-05-16T01:06:21.630Z,97031.47
2023-05-16T01:08:49.241Z,97030.48
2023-05-16T01:11:27.697Z,97029.34
2023-05-16T01:14:26.383Z,97032.12
2023-05-16T01:17:26.858Z,97031.55
2023-05-16T01:20:10.601Z,97033.91
2023-05-16T01:22:48.152Z,97032.98
2023-05-16T01:25:56.334Z,97035.48
2023-05-16T01:28:25.614Z,97034.82
2023-05-16T01:30:53.711Z,97035.80
2023-05-16T01:33:21.531Z,97039.11
2023-05-16T01:36:17.739Z,97039.59
2023-05-16T01:39:36.075Z,97035.54
2023-05-16T01:42:15.367Z,97032.60
2023-05-16T01:44:57.534Z,97031.49
2023-05-16T01:47:27.259Z,97032.48
2023-05-16T01:50:12.372Z,97030.23
2023-05-16T01:52:50.558Z,97032.56
2023-05-16T01:55:38.646Z,97037.76
2023-05-16T01:58:08.317Z,97034.19
2023-05-16T02:00:36.247Z,97033.09
2023-05-16T02:03:04.535Z,97034.80
2023-05-16T02:05:32.934Z,97031.08
2023-05-16T02:08:01.177Z,97037.41
2023-05-16T02:10:29.004Z,97040.53
2023-05-16T02:12:57.284Z,97045.48
2023-05-16T02:15:25.321Z,97041.84
2023-05-16T02:17:53.661Z,97043.84
2023-05-16T02:20:21.409Z,97045.49
2023-05-16T02:22:49.515Z,97046.59
2023-05-16T02:25:17.174Z,97039.72
2023-05-16T02:27:44.885Z,97041.07
2023-05-16T02:30:13.287Z,97045.13
2023-05-16T02:32:43.457Z,97036.21
2023-05-16T02:35:11.815Z,97035.67
2023-05-16T02:37:40.530Z,97040.50
2023-05-16T02:40:09.727Z,97046.89
2023-05-16T02:42:37.622Z,97050.61
2023-05-16T02:45:06.357Z,97055.20
2023-05-16T02:47:34.144Z,97054.66
2023-05-16T02:50:03.192Z,97051.23
2023-05-16T02:52:32.728Z,97052.66
2023-05-16T02:55:16.108Z,97056.80
2023-05-16T02:57:29.548Z,97060.39
2023-05-16T02:59:57.974Z,97058.89
2023-05-16T03:02:25.995Z,97062.03
2023-05-16T03:04:53.977Z,97059.75
2023-05-16T03:07:21.803Z,97067.06
2023-05-16T03:09:49.600Z,97065.38
2023-05-16T03:12:17.469Z,97056.00
2023-05-16T03:14:45.339Z,97059.48
2023-05-16T03:17:12.889Z,97058.21
2023-05-16T03:19:40.601Z,97060.75
2023-05-16T03:22:08.396Z,97066.03
2023-05-16T03:24:35.874Z,97066.47
2023-05-16T03:27:04.285Z,97062.50
2023-05-16T03:29:31.830Z,97057.17
2023-05-16T03:31:59.714Z,97061.64
2023-05-16T03:34:27.638Z,97067.56
2023-05-16T03:36:55.689Z,97073.42
2023-05-16T03:39:23.396Z,97068.42
2023-05-16T03:41:51.735Z,97073.57
2023-05-16T03:44:19.416Z,97077.54
2023-05-16T03:46:47.165Z,97075.92
2023-05-16T03:49:14.636Z,97073.50
2023-05-16T03:51:42.277Z,97076.41
2023-05-16T03:54:09.864Z,97071.52
2023-05-16T03:56:37.438Z,97065.03
2023-05-16T03:59:05.795Z,97062.63
2023-05-16T04:01:33.540Z,97065.48
2023-05-16T04:04:01.253Z,97069.44
2023-05-16T04:06:28.910Z,97071.50
2023-05-16T04:08:57.149Z,97067.81
2023-05-16T04:11:26.320Z,97068.16
2023-05-16T04:13:54.232Z,97064.80
2023-05-16T04:16:22.428Z,97062.02
2023-05-16T04:18:58.823Z,97065.80
2023-05-16T04:21:27.108Z,97063.36
2023-05-16T04:23:54.917Z,97064.58
2023-05-16T04:26:27.852Z,97068.84
2023-05-16T04:28:54.415Z,97063.28
2023-05-16T04:31:22.951Z,97071.61
2023-05-16T04:33:50.660Z,97074.17
2023-05-16T04:36:19.284Z,97074.61
2023-05-16T04:38:47.367Z,97076.80
2023-05-16T04:41:17.733Z,97083.78
2023-05-16T04:43:48.106Z,97078.02
2023-05-16T04:46:16.215Z,97082.48
2023-05-16T04:48:53.032Z,97078.28
2023-05-16T04:51:22.353Z,97071.91
2023-05-16T04:53:51.469Z,97071.97
2023-05-16T04:56:19.897Z,97070.33
2023-05-16T04:58:47.664Z,97077.02
2023-05-16T05:01:15.486Z,97079.27
2023-05-16T05:03:43.069Z,97068.11
2023-05-16T05:06:11.158Z,97068.66
2023-05-16T05:08:39.282Z,97070.80
2023-05-16T05:11:06.930Z,97063.40
2023-05-16T05:13:34.609Z,97063.55
2023-05-16T05:16:04.359Z,97068.11
2023-05-16T05:18:32.304Z,97065.17
2023-05-16T05:21:00.179Z,97067.41
2023-05-16T05:23:28.100Z,97061.67
2023-05-16T05:25:55.827Z,97064.67
2023-05-16T05:28:23.545Z,97055.26
2023-05-16T05:30:51.667Z,97062.51
2023-05-16T05:33:19.396Z,97051.89
2023-05-16T05:35:47.360Z,97053.29
2023-05-16T05:38:15.755Z,97048.88
2023-05-16T05:40:43.481Z,97046.94
2023-05-16T05:43:11.724Z,97054.11
2023-05-16T05:45:39.493Z,97052.33
2023-05-16T05:48:07.807Z,97047.70
2023-05-16T05:50:35.531Z,97049.02
2023-05-16T05:53:03.420Z,97050.73
2023-05-16T05:55:31.120Z,97051.51
2023-05-16T05:57:58.969Z,97048.44
2023-05-16T06:00:27.631Z,97047.86
2023-05-16T06:02:56.253Z,97045.96
2023-05-16T06:05:32.319Z,97057.05
2023-05-16T06:08:01.847Z,97055.97
2023-05-16T06:10:29.804Z,97058.76
2023-05-16T06:12:57.486Z,97069.85
2023-05-16T06:15:26.144Z,97073.42
2023-05-16T06:17:54.335Z,97085.55
2023-05-16T06:20:22.225Z,97084.88
2023-05-16T06:22:50.239Z,97081.84
2023-05-16T06:25:17.960Z,97087.99
2023-05-16T06:27:45.725Z,97082.65
2023-05-16T06:30:13.668Z,97079.05
2023-05-16T06:32:41.839Z,97090.02
2023-05-16T06:35:09.729Z,97094.36
2023-05-16T06:37:37.599Z,97086.50
2023-05-16T06:40:06.828Z,97087.94
2023-05-16T06:42:34.757Z,97092.08
2023-05-16T06:45:03.264Z,97096.61
2023-05-16T06:47:35.697Z,97100.02
2023-05-16T06:50:04.398Z,97102.24
2023-05-16T06:52:32.230Z,97095.50
2023-05-16T06:54:59.894Z,97088.53
2023-05-16T06:57:28.758Z,97081.39
2023-05-16T06:59:56.625Z,97089.78
2023-05-16T07:02:24.182Z,97092.54
2023-05-16T07:04:52.421Z,97092.80
2023-05-16T07:07:20.094Z,97090.09
2023-05-16T07:09:47.781Z,97089.10
2023-05-16T07:12:15.512Z,97087.38
2023-05-16T07:14:43.217Z,97086.97
2023-05-16T07:17:11.284Z,97086.02
2023-05-16T07:19:38.891Z,97086.20
2023-05-16T07:22:06.476Z,97085.81
2023-05-16T07:24:34.037Z,97088.73
2023-05-16T07:27:01.724Z,97088.54
2023-05-16T07:29:30.050Z,97094.17
2023-05-16T07:31:57.623Z,97090.66
2023-05-16T07:34:25.930Z,97093.38
2023-05-16T07:36:53.729Z,97090.83
2023-05-16T07:39:21.400Z,97089.48
2023-05-16T07:41:52.031Z,97091.83
2023-05-16T07:44:19.567Z,97086.55
2023-05-16T07:46:47.521Z,97083.81
2023-05-16T07:49:15.672Z,97088.30
2023-05-16T07:51:43.398Z,97091.62
2023-05-16T07:54:11.281Z,97086.69
2023-05-16T07:56:39.016Z,97084.75
2023-05-16T07:59:06.650Z,97089.20
2023-05-16T08:01:34.528Z,97095.23
2023-05-16T08:04:02.107Z,97088.38
2023-05-16T08:06:30.787Z,97094.59
2023-05-16T08:08:58.510Z,97087.73
2023-05-16T08:11:26.331Z,97080.86
2023-05-16T08:13:54.058Z,97085.52
2023-05-16T08:16:21.748Z,97082.15
2023-05-16T08:18:49.484Z,97087.61
2023-05-16T08:21:17.148Z,97089.95
2023-05-16T08:23:45.055Z,97086.42
2023-05-16T08:26:12.866Z,97087.58
2023-05-16T08:28:40.492Z,97090.12
2023-05-16T08:31:08.022Z,97087.98
2023-05-16T08:33:35.796Z,97093.23
2023-05-16T08:36:04.129Z,97088.52
2023-05-16T08:38:32.052Z,97088.11
2023-05-16T08:40:59.886Z,97090.27
2023-05-16T08:43:28.147Z,97088.28
2023-05-16T08:45:56.307Z,97090.19
2023-05-16T08:48:25.775Z,97089.16
2023-05-16T08:50:53.568Z,97088.36
2023-05-16T08:53:29.822Z,97086.58
2023-05-16T08:55:58.856Z,97089.28
2023-05-16T08:58:27.686Z,97087.48
2023-05-16T09:00:57.017Z,97083.91
2023-05-16T09:03:25.434Z,97081.30
2023-05-16T09:05:53.289Z,97079.48
2023-05-16T09:08:21.302Z,97085.51
2023-05-16T09:10:49.233Z,97083.69
2023-05-16T09:13:17.136Z,97083.27
2023-05-16T09:15:45.133Z,97085.73
2023-05-16T09:18:16.158Z,97080.61
2023-05-16T09:20:46.603Z,97074.45
2023-05-16T09:23:16.588Z,97069.55
2023-05-16T09:25:44.574Z,97067.50
2023-05-16T09:28:12.299Z,97057.06
2023-05-16T09:30:41.742Z,97056.98
2023-05-16T09:33:09.567Z,97052.36
2023-05-16T09:35:44.017Z,97048.92
2023-05-16T09:38:12.130Z,97052.88
2023-05-16T09:40:41.648Z,97046.23
2023-05-16T09:43:10.443Z,97045.09
2023-05-16T09:45:38.367Z,97046.84
2023-05-16T09:48:12.543Z,97046.41
2023-05-16T09:50:42.434Z,97041.55
2023-05-16T09:53:10.222Z,97034.75
2023-05-16T09:55:37.726Z,97033.73
2023-05-16T09:58:05.536Z,97031.72
2023-05-16T10:00:34.620Z,97032.41
2023-05-16T10:03:05.386Z,97029.05
2023-05-16T10:05:32.712Z,97029.76
2023-05-16T10:08:03.796Z,97026.13
2023-05-16T10:10:34.376Z,97028.81
2023-05-16T10:13:06.734Z,97019.53
2023-05-16T10:15:38.392Z,97016.45
2023-05-16T10:18:15.086Z,97020.20
2023-05-16T10:20:48.663Z,97020.57
2023-05-16T10:23:24.260Z,97018.89
2023-05-16T10:25:56.272Z,97020.69
2023-05-16T10:28:27.028Z,97013.87
2023-05-16T10:30:55.772Z,97018.98
2023-05-16T10:33:24.188Z,97011.00
2023-05-16T10:35:52.381Z,97008.00
2023-05-16T10:38:23.917Z,97007.41
2023-05-16T10:41:16.378Z,97009.36
2023-05-16T10:43:57.996Z,96999.77
2023-05-16T10:46:30.777Z,96993.94
2023-05-16T10:48:59.516Z,96985.27
2023-05-16T10:51:36.638Z,96984.39
2023-05-16T10:54:13.743Z,96973.41
2023-05-16T10:56:42.699Z,96976.56
2023-05-16T10:59:26.147Z,96980.77
2023-05-16T11:01:58.325Z,96968.35
2023-05-16T11:04:57.155Z,96956.34
2023-05-16T11:07:38.841Z,96957.26
2023-05-16T11:13:51.120Z,96948.39
2023-05-16T11:16:29.862Z,96948.09
2023-05-16T11:19:07.749Z,96945.18
2023-05-16T11:22:17.138Z,96946.08
2023-05-16T11:25:10.832Z,96942.71
2023-05-16T11:27:45.194Z,96936.03
2023-05-16T11:30:20.950Z,96934.66
2023-05-16T11:32:55.450Z,96934.28
2023-05-16T11:35:23.166Z,96930.98
2023-05-16T11:37:54.006Z,96931.64
2023-05-16T11:40:21.722Z,96932.06
2023-05-16T11:42:49.576Z,96929.31
2023-05-16T11:45:21.221Z,96925.36
2023-05-16T11:47:49.840Z,96920.89
2023-05-16T11:50:25.728Z,96927.44
2023-05-16T11:52:56.571Z,96919.16
2023-05-16T11:58:12.982Z,96914.95
2023-05-16T12:00:50.175Z,96912.54
2023-05-16T12:03:20.129Z,96908.29
2023-05-16T12:05:56.599Z,96905.44
2023-05-16T12:08:24.832Z,96900.99
2023-05-16T12:10:53.855Z,96896.64
2023-05-16T12:13:24.066Z,96899.77
2023-05-16T12:15:56.649Z,96897.52
2023-05-16T12:18:24.632Z,96902.62
2023-05-16T12:20:55.536Z,96891.13
2023-05-16T12:26:32.952Z,96886.18
2023-05-16T12:29:03.526Z,96882.09
2023-05-16T12:31:37.570Z,96882.09
2023-05-16T12:34:05.666Z,96884.88
2023-05-16T12:36:34.525Z,96876.48
2023-05-16T12:39:03.476Z,96874.11
2023-05-16T12:41:32.028Z,96868.00
2023-05-16T12:44:18.966Z,96867.56
2023-05-16T12:46:50.973Z,96865.25
2023-05-16T12:49:24.911Z,96857.92
2023-05-16T12:51:55.606Z,96857.17
2023-05-16T12:54:23.412Z,96854.81
2023-05-16T12:56:51.350Z,96857.33
2023-05-16T12:59:20.274Z,96856.41
2023-05-16T13:01:48.313Z,96853.16
2023-05-16T13:04:19.677Z,96852.99
2023-05-16T13:06:57.676Z,96848.86
2023-05-16T13:09:17.638Z,96846.56
2023-05-16T13:11:45.704Z,96843.11
2023-05-16T13:14:13.428Z,96839.42
2023-05-16T13:16:41.202Z,96837.99
2023-05-16T13:19:09.238Z,96838.84
2023-05-16T13:21:37.115Z,96837.34
2023-05-16T13:24:06.034Z,96832.45
2023-05-16T13:26:34.504Z,96833.05
2023-05-16T13:29:02.414Z,96832.73
2023-05-16T13:31:30.277Z,96834.30
2023-05-16T13:33:58.334Z,96828.89
2023-05-16T13:36:26.169Z,96839.75
2023-05-16T13:38:53.899Z,96845.08
2023-05-16T13:41:21.702Z,96845.23
2023-05-16T13:43:49.636Z,96842.05
2023-05-16T13:46:17.464Z,96849.09
2023-05-16T13:48:45.445Z,96843.08
2023-05-16T13:51:14.740Z,96841.10
2023-05-16T13:53:42.740Z,96827.96
2023-05-16T13:56:10.605Z,96827.64
2023-05-16T13:58:48.945Z,96830.80
2023-05-16T14:01:08.183Z,96827.28
2023-05-16T14:03:36.446Z,96818.09
2023-05-16T14:06:04.301Z,96814.14
2023-05-16T14:08:32.120Z,96812.24
2023-05-16T14:11:00.067Z,96810.27
2023-05-16T14:13:27.982Z,96814.05
2023-05-16T14:15:55.667Z,96810.75
2023-05-16T14:18:23.404Z,96813.86
2023-05-16T14:20:50.941Z,96817.02
2023-05-16T14:23:18.782Z,96815.33
2023-05-16T14:25:46.586Z,96816.19
2023-05-16T14:28:14.893Z,96818.50
2023-05-16T14:30:42.628Z,96815.48
2023-05-16T14:33:10.607Z,96825.53
2023-05-16T14:35:40.553Z,96822.20
2023-05-16T14:38:08.122Z,96836.02
2023-05-16T14:40:35.836Z,96837.81
2023-05-16T14:43:03.908Z,96842.39
2023-05-16T14:45:31.462Z,96835.16
2023-05-16T14:47:59.440Z,96832.69
2023-05-16T14:50:29.428Z,96833.55
2023-05-16T14:52:57.448Z,96829.77
2023-05-16T14:55:25.550Z,96824.02
2023-05-16T14:57:59.302Z,96826.91
2023-05-16T15:00:25.558Z,96815.52
2023-05-16T15:02:53.639Z,96824.71
2023-05-16T15:05:21.686Z,96817.41
2023-05-16T15:07:50.260Z,96813.78
2023-05-16T15:10:17.924Z,96807.45
2023-05-16T15:12:45.786Z,96817.31
2023-05-16T15:15:21.852Z,96811.30
2023-05-16T15:17:50.405Z,96810.20
2023-05-16T15:20:19.871Z,96819.22
2023-05-16T15:22:48.011Z,96823.14
2023-05-16T15:25:15.993Z,96810.78
2023-05-16T15:27:44.259Z,96822.66
2023-05-16T15:30:12.337Z,96820.76
2023-05-16T15:32:40.256Z,96824.52
2023-05-16T15:35:08.476Z,96826.91
2023-05-16T15:37:36.588Z,96823.31
2023-05-16T15:40:05.509Z,96819.52
2023-05-16T15:42:32.946Z,96825.70
2023-05-16T15:45:00.792Z,96814.11
2023-05-16T15:47:28.579Z,96811.41
2023-05-16T15:49:56.229Z,96822.48
2023-05-16T15:52:23.962Z,96826.43
2023-05-16T15:54:51.725Z,96825.91
2023-05-16T15:57:19.711Z,96828.73
2023-05-16T15:59:47.357Z,96826.39
2023-05-16T16:02:15.037Z,96823.72
2023-05-16T16:04:43.009Z,96820.28
2023-05-16T16:07:11.594Z,96812.37
2023-05-16T16:09:39.846Z,96816.23
2023-05-16T16:12:08.215Z,96813.03
2023-05-16T16:14:35.934Z,96815.75
2023-05-16T16:17:04.271Z,96815.87
2023-05-16T16:19:34.941Z,96823.60
2023-05-16T16:22:05.550Z,96820.73
2023-05-16T16:24:34.486Z,96817.89
2023-05-16T16:27:02.711Z,96822.52
2023-05-16T16:29:30.376Z,96828.44
2023-05-16T16:31:58.743Z,96828.51
2023-05-16T16:34:26.997Z,96830.55
2023-05-16T16:36:54.553Z,96831.02
2023-05-16T16:39:22.337Z,96829.38
2023-05-16T16:41:49.873Z,96820.51
2023-05-16T16:44:19.404Z,96821.64
2023-05-16T16:46:51.060Z,96824.14
2023-05-16T16:49:20.989Z,96825.30
2023-05-16T16:51:49.541Z,96830.46
2023-05-16T16:54:40.380Z,96820.59
2023-05-16T16:57:13.536Z,96822.84
2023-05-16T16:59:41.768Z,96844.65
2023-05-16T17:02:10.136Z,96842.02
2023-05-16T17:04:38.895Z,96840.16
2023-05-16T17:07:07.128Z,96839.27
2023-05-16T17:09:40.592Z,96839.80
2023-05-16T17:12:12.880Z,96842.88
2023-05-16T17:14:43.236Z,96844.39
2023-05-16T17:17:11.223Z,96848.98
2023-05-16T17:19:40.169Z,96836.77
2023-05-16T17:22:10.039Z,96828.86
2023-05-16T17:24:39.935Z,96823.92
2023-05-16T17:27:14.174Z,96839.70
2023-05-16T17:30:01.733Z,96842.52
2023-05-16T17:32:30.384Z,96840.03
2023-05-16T17:35:03.555Z,96844.22
2023-05-16T17:37:32.503Z,96845.48
2023-05-16T17:40:02.314Z,96843.00
2023-05-16T17:42:33.642Z,96855.41
2023-05-16T17:45:05.355Z,96852.75
2023-05-16T17:47:33.291Z,96853.95
2023-05-16T17:50:01.959Z,96852.29
2023-05-16T17:52:30.859Z,96853.48
2023-05-16T17:55:03.584Z,96864.85
2023-05-16T17:57:31.431Z,96860.22
2023-05-16T17:59:59.489Z,96863.42
2023-05-16T18:02:27.512Z,96862.11
2023-05-16T18:04:55.273Z,96869.34
2023-05-16T18:07:24.802Z,96873.67
2023-05-16T18:09:53.724Z,96876.06
2023-05-16T18:12:21.903Z,96872.97
2023-05-16T18:14:53.551Z,96868.56
2023-05-16T18:17:22.320Z,96874.24
2023-05-16T18:19:55.187Z,96871.73
2023-05-16T18:22:29.558Z,96881.69
2023-05-16T18:24:57.428Z,96888.11
2023-05-16T18:27:25.715Z,96885.80
2023-05-16T18:29:57.538Z,96887.36
2023-05-16T18:32:25.668Z,96890.28
2023-05-16T18:34:53.250Z,96888.15
2023-05-16T18:37:21.024Z,96886.60
2023-05-16T18:39:48.984Z,96886.80
2023-05-16T18:42:17.658Z,96882.33
2023-05-16T18:44:46.166Z,96881.58
2023-05-16T18:47:15.360Z,96883.95
2023-05-16T18:49:43.114Z,96892.73
2023-05-16T18:52:11.952Z,96896.24
2023-05-16T18:54:39.700Z,96895.47
2023-05-16T18:57:07.749Z,96904.03
2023-05-16T18:59:36.978Z,96896.81
2023-05-16T19:02:05.576Z,96884.17
2023-05-16T19:04:36.479Z,96885.55
2023-05-16T19:07:05.624Z,96890.61
2023-05-16T19:09:34.247Z,96887.70
2023-05-16T19:12:01.993Z,96897.66
2023-05-16T19:14:29.581Z,96894.34
2023-05-16T19:16:57.744Z,96896.08
2023-05-16T19:19:25.572Z,96897.66
2023-05-16T19:21:53.730Z,96895.71
2023-05-16T19:24:21.921Z,96895.91
2023-05-16T19:26:49.810Z,96890.27
2023-05-16T19:29:18.496Z,96889.87
2023-05-16T19:31:46.260Z,96888.91
2023-05-16T19:34:14.054Z,96883.84
2023-05-16T19:36:41.976Z,96881.12
2023-05-16T19:39:10.241Z,96888.12
2023-05-16T19:41:38.050Z,96896.72
2023-05-16T19:44:06.009Z,96904.70
2023-05-16T19:46:34.714Z,96906.27
2023-05-16T19:49:04.896Z,96901.77
2023-05-16T19:51:41.980Z,96904.91
2023-05-16T19:54:06.517Z,96903.55
2023-05-16T19:56:34.320Z,96906.28
2023-05-16T19:59:02.507Z,96905.88
2023-05-16T20:01:30.263Z,96900.06
2023-05-16T20:04:00.062Z,96902.36
2023-05-16T20:06:28.526Z,96902.37
2023-05-16T20:08:56.748Z,96899.64
2023-05-16T20:11:26.352Z,96893.42
2023-05-16T20:13:55.221Z,96891.48
2023-05-16T20:16:27.566Z,96896.16
2023-05-16T20:18:56.019Z,96888.95
2023-05-16T20:21:26.378Z,96882.14
2023-05-16T20:23:55.189Z,96882.54
2023-05-16T20:26:23.459Z,96876.69
2023-05-16T20:28:51.179Z,96869.11
2023-05-16T20:31:19.628Z,96869.69
2023-05-16T20:33:47.650Z,96873.19
2023-05-16T20:36:15.708Z,96876.50
2023-05-16T20:38:45.903Z,96880.58
2023-05-16T20:41:14.066Z,96889.73
2023-05-16T20:43:49.247Z,96883.53
2023-05-16T20:46:17.617Z,96875.70
2023-05-16T20:48:45.741Z,96871.61
2023-05-16T20:51:13.926Z,96873.97
2023-05-16T20:53:42.201Z,96863.64
2023-05-16T20:56:11.239Z,96871.62
2023-05-16T20:58:43.579Z,96874.54
2023-05-16T21:01:13.331Z,96877.84
2023-05-16T21:03:45.441Z,96870.64
2023-05-16T21:06:13.887Z,96873.13
2023-05-16T21:08:48.762Z,96871.97
2023-05-16T21:11:17.132Z,96854.62
2023-05-16T21:13:45.391Z,96855.20
2023-05-16T21:16:13.336Z,96848.39
2023-05-16T21:18:41.409Z,96844.50
2023-05-16T21:21:09.666Z,96835.36
2023-05-16T21:23:38.871Z,96841.22
2023-05-16T21:26:06.992Z,96844.34
2023-05-16T21:28:42.663Z,96847.07
2023-05-16T21:31:05.674Z,96848.45
2023-05-16T21:33:33.605Z,96859.54
2023-05-16T21:36:03.306Z,96851.00
2023-05-16T21:38:31.643Z,96853.54
2023-05-16T21:41:02.531Z,96857.62
2023-05-16T21:43:31.505Z,96857.62
2023-05-16T21:46:01.859Z,96855.28
2023-05-16T21:48:30.213Z,96840.69
2023-05-16T21:50:58.622Z,96842.64
2023-05-16T21:53:26.722Z,96846.73
2023-05-16T21:55:59.292Z,96841.07
2023-05-16T21:58:28.830Z,96843.02
2023-05-16T22:00:56.529Z,96830.15
2023-05-16T22:03:24.301Z,96831.93
2023-05-16T22:05:52.289Z,96827.45
2023-05-16T22:08:20.098Z,96824.38
2023-05-16T22:10:48.409Z,96824.35
2023-05-16T22:13:16.300Z,96823.40
2023-05-16T22:15:55.621Z,96816.19
2023-05-16T22:18:16.218Z,96819.14
2023-05-16T22:20:44.124Z,96818.92
2023-05-16T22:23:12.155Z,96813.48
2023-05-16T22:25:40.189Z,96825.73
2023-05-16T22:28:07.893Z,96824.95
2023-05-16T22:30:35.835Z,96826.51
2023-05-16T22:33:04.069Z,96828.67
2023-05-16T22:35:32.092Z,96826.72
2023-05-16T22:38:00.162Z,96826.13
2023-05-16T22:40:28.359Z,96820.88
2023-05-16T22:42:56.269Z,96811.16
2023-05-16T22:45:23.887Z,96809.20
2023-05-16T22:47:51.833Z,96805.89
2023-05-16T22:50:19.607Z,96808.22
2023-05-16T22:52:47.404Z,96798.13
2023-05-16T22:55:15.207Z,96805.48
2023-05-16T22:57:43.982Z,96803.73
2023-05-16T23:00:13.394Z,96803.14
2023-05-16T23:02:44.526Z,96795.75
2023-05-16T23:05:12.479Z,96797.51
2023-05-16T23:07:40.495Z,96795.75
2023-05-16T23:10:09.290Z,96794.20
2023-05-16T23:12:37.738Z,96793.20
2023-05-16T23:15:08.944Z,96796.91
2023-05-16T23:17:40.912Z,96791.84
2023-05-16T23:20:09.594Z,96794.96
2023-05-16T23:22:37.210Z,96794.55
2023-05-16T23:25:06.588Z,96789.52
2023-05-16T23:27:34.448Z,96791.64
2023-05-16T23:30:02.412Z,96791.45
2023-05-16T23:32:30.489Z,96781.34
2023-05-16T23:34:58.487Z,96786.78
2023-05-16T23:37:26.349Z,96784.83
2023-05-16T23:39:53.884Z,96789.10
2023-05-16T23:42:21.476Z,96796.48
2023-05-16T23:44:50.281Z,96805.23
2023-05-16T23:47:18.060Z,96797.66
2023-05-16T23:49:45.862Z,96798.63
2023-05-16T23:52:13.589Z,96799.40
2023-05-16T23:54:41.234Z,96800.98
2023-05-16T23:57:10.295Z,96808.55
2023-05-16T23:59:38.827Z,96801.75
